Manville, NJ (08835)

6:36 AM EDT on November 01, 2014 (GMT -0400)
Duke Farms, Hillsborough, NJ | Change Station
CLOSE
Current Station
Personal Weather Station
Location: Hillsborough Township, NJ
Elevation: 75 ft
Nearby Weather Stations

Elev 75 ft 40.54 °N, 74.62 °W | Updated 6 seconds ago

Rain
Rain
44.2 °F
Feels Like 39 °F
N
8.9
Wind Variable Wind from NE
Gusts 9.0 mph

Today
High -- | Low -- °F
--% Chance of Precip.
Yesterday
High -- | Low -- °F
Precip. -- in
7:28 AM 5:54 PM
Waxing Gibbous, 65% visible
Pressure 29.81 in
Visibility 5.0 miles
Clouds Overcast 5000 ft
Windchill 39 °F
Dew Point 42 °F
Humidity 90%
Rainfall 0.18 in
Snow Depth Not available.
UV 0.0 out of 12
Pollen .50 out of 12
Air Quality Not available.
Flu Activity Not available.
METAR KSMQ 010953Z AUTO 02008G15KT 350V060 5SM RA OVC050 07/04 A2981 RMK AO2 SLP095 P0009 T00720039

More Conditions Fewer Conditions

Pressure 29.81 in
Visibility 5.0 miles
Clouds Overcast 5000 ft
Windchill 39 °F
Dew Point 42 °F
Humidity 90%
Rainfall 0.18 in
Snow Depth Not available.
UV 0.0 out of 12
Pollen .50 out of 12
Air Quality Not available.
Flu Activity Not available.
METAR KSMQ 010953Z AUTO 02008G15KT 350V060 5SM RA OVC050 07/04 A2981 RMK AO2 SLP095 P0009 T00720039

More Conditions Fewer Conditions

Nowcast | as of 4:58 am EDT on November 1, 2014

Light to moderate rain will continue to affect the area this morning. Rainfall rates of one tenth to one quarter of an inch per hour can occur with may cause localized ponding on roadways and low lying areas. Drivers are urged to use caution while driving this morning.

×

10-Day Weather Forecast

Almanac

Astronomy

Nov. 01, 2014 Rise Set
Actual Time
Civil Twilight
Nautical Twilight
Astronomical Twilight
Moon
Length of Visible Light
Length of Day
Tomorrow will be .
, % of the Moon is Illuminated

Today's Extremes

State Highs State Lows

Community

WunderPhotos

Upload Photos

1,766,874 photos uploaded!

WunderBlogs® & News

Nearby

Air Quality

  Air Quality AQ Index Pollutant
Not available.

Snow Depth

Station Depth Elevation

Earthquake Activity

City Distance Mag. Time & Date
Minimum magnitude displayed is 2.5.

Coastal Water Temperatures

Place Temperature

Nearby Weather Stations